< < Back
Terminal Aerodrome Forecast


Current Version              Previous Versions:   1  2  3  4  5  6  7  8  9  

Terminal Aerodrome Forecast

051
FTUS42 KTAE 191700
TAFDHN
TAF
KDHN 191724Z 1918/2018 10008KT P6SM SCT040
     FM201100 08005KT P6SM SCT009 BKN015
     FM201400 07009KT P6SM SCT025=

Latest METAR

693
SAUS70 KWBC 200400 RRB
MTRDHN
METAR KDHN 200353Z AUTO 00000KT 10SM SCT023 BKN039 22/20 A3008 RMK AO2
SLP179 T02220200


USA.gov is the U.S. government's official web portal to all federal, state and local government web resources and services.